Flight Track Log - Related Links

Times and Time Zones

All times are in EDT time to prevent confusion due to time zone crossing. See the N30TL flight status page for this flight to view local times or setup timezone preferences in your user account.

Time Position Orientation Groundspeed Altitude Reporting Facility
EDT Latitude Longitude Course Direction KTS MPH feet Rate Location/Type
Sun 02:30:29 PM 30.0072 -90.2456 12° North 155 178 800  Level Houston Center
Sun 02:31:11 PM 30.0425 -90.2369 12° North 190 219 2,900 2,615 Climbing Houston Center
Sun 02:31:47 PM 30.0689 -90.2375 359° North 205 236 4,200 3,152 Climbing Houston Center
Sun 02:32:50 PM 30.0694 -90.3181 270° West 275 316 8,100 3,216 Climbing Houston Center
Sun 02:33:52 PM 30.0200 -90.3781 226° Southwest 260 299 10,900 2,419 Climbing Houston Center
Sun 02:34:54 PM 29.9592 -90.4464 224° Southwest 296 341 13,100 2,419 Climbing Houston Center
Sun 02:35:56 PM 29.8967 -90.5197 225° Southwest 315 362 15,900 2,613 Climbing Houston Center
Sun 02:36:58 PM 29.8319 -90.5903 223° Southwest 319 367 18,500 2,758 Climbing Houston Center
Sun 02:38:00 PM 29.7556 -90.6736 223° Southwest 317 365 21,600 2,758 Climbing Houston Center
Sun 02:39:02 PM 29.6917 -90.7433 223° Southwest 316 364 24,200 2,419 Climbing Houston Center
Sun 02:40:04 PM 29.6283 -90.8100 222° Southwest 312 359 26,600 2,032 Climbing Houston Center
Sun 02:41:06 PM 29.5617 -90.8764 221° Southwest 314 361 28,400 1,776 Climbing Houston Center
Sun 02:42:09 PM 29.4908 -90.9439 220° Southwest 324 373 30,300 1,824 Climbing Houston Center
Sun 02:43:11 PM 29.4586 -91.0322 247° West 325 374 32,200 1,742 Climbing Houston Center
Sun 02:44:13 PM 29.4689 -91.1450 276° West 303 349 33,900 871 Climbing Houston Center
Sun 02:45:15 PM 29.4933 -91.2486 285° West 323 372 34,000 48 Climbing Houston Center
Sun 02:46:17 PM 29.5208 -91.3622 286° West 356 410 34,000  Level Houston Center
Sun 02:47:19 PM 29.5489 -91.4811 285° West 378 435 34,000  Level Houston Center
Sun 02:48:21 PM 29.5775 -91.6014 285° West 388 447 34,000  Level Houston Center
Sun 02:49:23 PM 29.6039 -91.7253 284° West 385 443 34,000  Level Houston Center
Sun 02:50:25 PM 29.6311 -91.8428 285° West 382 440 34,000  Level Houston Center
Sun 02:51:28 PM 29.6644 -91.9850 285° West 383 441 34,000  Level Houston Center
Sun 02:52:30 PM 29.6908 -92.1022 285° West 381 438 34,000  Level Houston Center
Sun 02:53:32 PM 29.7183 -92.2194 285° West 380 437 34,000  Level Houston Center
Sun 02:54:34 PM 29.7456 -92.3372 285° West 380 437 34,000  Level Houston Center
Sun 02:55:36 PM 29.7714 -92.4542 284° West 379 436 34,000  Level Houston Center
Sun 02:56:38 PM 29.7986 -92.5708 285° West 379 436 34,000  Level Houston Center
Sun 02:57:40 PM 29.8303 -92.7106 285° West 377 434 34,000  Level Houston Center
Sun 02:58:42 PM 29.8567 -92.8272 285° West 377 434 34,000  Level Houston Center
Sun 02:59:45 PM 29.8817 -92.9431 284° West 375 432 34,000  Level Houston Center
Sun 03:00:46 PM 29.9081 -93.0589 285° West 374 430 34,000  Level Houston Center
Sun 03:01:49 PM 29.9336 -93.1764 284° West 376 433 34,000  Level Houston Center
Sun 03:02:51 PM 29.9597 -93.2931 285° West 374 430 34,000  Level Houston Center
Sun 03:03:53 PM 29.9906 -93.4325 284° West 373 429 34,000  Level Houston Center
Sun 03:04:55 PM 30.0158 -93.5494 284° West 373 429 34,000  Level Houston Center
Sun 03:05:57 PM 30.0408 -93.6661 284° West 373 429 34,000  Level Houston Center
Sun 03:06:59 PM 30.0661 -93.7822 284° West 371 427 34,000  Level Houston Center
Sun 03:08:01 PM 30.0914 -93.8986 284° West 372 428 34,000  Level Houston Center
Sun 03:09:03 PM 30.1156 -94.0139 284° West 370 426 34,000  Level Houston Center
Sun 03:10:06 PM 30.1400 -94.1303 284° West 371 427 34,000 -432 Level Houston Center
Sun 03:11:08 PM 30.1703 -94.2703 284° West 377 434 33,100 -919 Descending Houston Center
Sun 03:12:10 PM 30.1950 -94.3889 284° West 380 437 32,100 -968 Descending Houston Center
Sun 03:13:12 PM 30.2206 -94.5083 284° West 382 440 31,100 -1,113 Descending Houston Center
Sun 03:14:14 PM 30.2453 -94.6261 284° West 380 437 29,800 -1,355 Descending Houston Center
Sun 03:15:16 PM 30.2700 -94.7481 283° West 388 447 28,300 -1,452 Descending Houston Center
Sun 03:16:18 PM 30.2958 -94.8711 284° West 394 453 26,800 -1,584 Descending Houston Center
Sun 03:17:21 PM 30.3264 -95.0183 284° West 395 455 25,000 -1,584 Descending Houston Center
Sun 03:18:23 PM 30.3619 -95.1411 289° West 408 470 23,500 -1,500 Descending Houston Center
Sun 03:19:25 PM 30.4403 -95.2514 310° West 408 470 21,900 -1,500 Descending Houston Center
Sun 03:20:27 PM 30.5106 -95.3461 311° West 390 449 20,400 -1,551 Descending Houston Center
Sun 03:20:54 PM 30.5389 -95.3875 308° West 381 438 19,600 -1,355 Descending Houston Center
Sun 03:21:29 PM 30.5700 -95.4292 311° West 381 438 19,000 -1,761 Descending Houston Center
Sun 03:22:26 PM 30.5856 -95.5542 278° West 365 420 16,900 -2,323 Descending Houston Center
Sun 03:23:33 PM 30.5867 -95.6850 271° West 350 403 14,200 -2,344 Descending Houston Center
Sun 03:24:34 PM 30.5903 -95.7986 272° West 354 407 11,900 -1,966 Descending Houston Center
Sun 03:25:29 PM 30.5922 -95.8928 271° West 286 329 10,400 -1,619 Descending Houston Center
Sun 03:26:40 PM 30.5931 -95.9783 271° West 275 316 8,500 -1,721 Descending Houston Center
Sun 03:27:38 PM 30.5911 -96.0750 269° West 266 306 6,700 -2,071 Descending Houston Center
Sun 03:28:33 PM 30.5917 -96.1572 270° West 268 308 4,600 -1,914 Descending Houston Center
Sun 03:29:34 PM 30.6092 -96.2403 284° West 258 297 3,000 -1,230 Descending Houston Center
Sun 03:30:35 PM 30.6319 -96.3106 291° West 236 272 2,100 -780 Descending Houston Center
Sun 03:31:37 PM 30.6381 -96.3583 278° West 142 163 1,400 -613 Descending Houston Center
Sun 03:32:52 PM 30.5958 -96.3681 191° South 161 185 700 -560 Descending Houston Center
Sun 03:34:00 PM 30.5886 -96.3638 90° East  Level Estimated
Sun 03:41:00 PM 30.5886 -96.3638 90° East  Level Estimated

Login

Don't have an account? Register now (free) for customized features, flight alerts, and more!